Time;durP1;ratioP1;P1;durP2;ratioP2;P2;SDS_P1;SDS_P2;PMS_P1;PMS_P2;Temp;Humidity;BMP_temperature;BMP_pressure;BME280_temperature;BME280_humidity;BME280_pressure;Samples;Min_cycle;Max_cycle;Signal;HPM_P1;HPM_P2
2023/05/11 00:02:16;;;;;;;6.77;4.10;;;;;;;;;;771811;181;814408;-69
2023/05/11 00:04:42;;;;;;;6.13;5.10;;;;;;;;;;766317;180;916966;-70
2023/05/11 00:07:07;;;;;;;8.33;4.50;;;;;;;;;;763398;183;916125;-70
2023/05/11 00:09:34;;;;;;;8.20;5.23;;;;;;;;;;764255;183;817677;-70
2023/05/11 00:12:00;;;;;;;6.50;4.80;;;;;;;;;;764312;180;950305;-70
2023/05/11 00:14:25;;;;;;;5.85;4.78;;;;;;;;;;767847;180;905440;-70
2023/05/11 00:16:51;;;;;;;7.87;4.73;;;;;;;;;;771000;180;907592;-70
2023/05/11 00:19:17;;;;;;;5.47;4.43;;;;;;;;;;757947;181;1008860;-69
2023/05/11 00:21:43;;;;;;;5.63;4.30;;;;;;;;;;753168;181;1004090;-70
2023/05/11 00:24:08;;;;;;;5.97;4.70;;;;;;;;;;761753;181;829371;-70
2023/05/11 00:26:34;;;;;;;6.10;4.62;;;;;;;;;;755134;181;918215;-70
2023/05/11 00:29:00;;;;;;;11.17;4.30;;;;;;;;;;757355;181;921472;-69
2023/05/11 00:31:26;;;;;;;8.93;5.00;;;;;;;;;;761416;183;1008560;-70
2023/05/11 00:33:55;;;;;;;5.50;4.53;;;;;;;;;;743075;190;937564;-70
2023/05/11 00:36:20;;;;;;;5.53;4.50;;;;;;;;;;737418;190;918862;-70
2023/05/11 00:38:46;;;;;;;8.17;6.40;;;;;;;;;;752112;186;918217;-70
2023/05/11 00:41:12;;;;;;;6.60;5.17;;;;;;;;;;750679;186;893028;-70
2023/05/11 00:43:38;;;;;;;8.02;5.47;;;;;;;;;;766791;181;819605;-70
2023/05/11 00:46:04;;;;;;;6.63;5.37;;;;;;;;;;765623;180;921000;-70
2023/05/11 00:48:31;;;;;;;9.07;4.97;;;;;;;;;;767449;182;919967;-71
2023/05/11 00:50:56;;;;;;;6.30;5.23;;;;;;;;;;752631;183;913483;-71
2023/05/11 00:53:22;;;;;;;5.53;4.10;;;;;;;;;;765176;183;916778;-70
2023/05/11 00:55:48;;;;;;;6.53;4.65;;;;;;;;;;760022;182;916797;-70
2023/05/11 00:58:15;;;;;;;6.37;4.63;;;;;;;;;;772965;183;916370;-70
2023/05/11 01:00:39;;;;;;;6.47;5.23;;;;;;;;;;766627;183;922273;-70
2023/05/11 01:03:06;;;;;;;9.32;4.55;;;;;;;;;;766645;183;912300;-71
2023/05/11 01:05:31;;;;;;;7.87;5.70;;;;;;;;;;761859;183;919530;-70
2023/05/11 01:07:58;;;;;;;7.47;4.77;;;;;;;;;;749066;184;907021;-70
2023/05/11 01:10:30;;;;;;;5.35;4.62;;;;;;;;;;754291;184;979572;-70
2023/05/11 01:13:01;;;;;;;11.97;5.30;;;;;;;;;;754160;181;920296;-70
2023/05/11 01:15:29;;;;;;;6.83;4.87;;;;;;;;;;757510;183;918777;-70
2023/05/11 01:17:55;;;;;;;6.00;4.60;;;;;;;;;;759018;180;919286;-70
2023/05/11 01:20:21;;;;;;;6.23;4.97;;;;;;;;;;756153;181;819994;-70
2023/05/11 01:22:52;;;;;;;7.50;5.00;;;;;;;;;;760803;181;899768;-70
2023/05/11 01:25:24;;;;;;;6.10;4.93;;;;;;;;;;768740;183;916095;-70
2023/05/11 01:28:06;;;;;;;6.43;4.57;;;;;;;;;;765183;181;919107;-71
2023/05/11 01:30:42;;;;;;;6.40;5.17;;;;;;;;;;763365;181;917654;-70
2023/05/11 01:33:09;;;;;;;6.35;4.80;;;;;;;;;;747611;181;920040;-70
2023/05/11 01:35:34;;;;;;;5.53;4.33;;;;;;;;;;740604;187;920144;-70
2023/05/11 01:38:00;;;;;;;4.93;4.00;;;;;;;;;;749890;183;815250;-71
2023/05/11 01:40:26;;;;;;;6.20;4.87;;;;;;;;;;760275;181;945744;-70
2023/05/11 01:42:54;;;;;;;7.50;5.10;;;;;;;;;;767304;180;917245;-70
2023/05/11 01:45:20;;;;;;;6.10;4.40;;;;;;;;;;761231;180;864118;-70
2023/05/11 01:47:46;;;;;;;7.57;4.57;;;;;;;;;;771599;180;917255;-70
2023/05/11 01:50:12;;;;;;;6.30;4.47;;;;;;;;;;760241;180;920969;-70
2023/05/11 01:52:38;;;;;;;9.93;5.85;;;;;;;;;;761708;180;916325;-70
2023/05/11 01:55:04;;;;;;;7.77;5.23;;;;;;;;;;771602;183;912418;-68
2023/05/11 01:57:30;;;;;;;6.60;4.03;;;;;;;;;;765496;180;922663;-69
2023/05/11 01:59:55;;;;;;;5.97;4.78;;;;;;;;;;760852;181;1022004;-68
2023/05/11 02:02:21;;;;;;;6.03;4.70;;;;;;;;;;764268;181;919548;-68
2023/05/11 02:04:47;;;;;;;6.30;5.70;;;;;;;;;;754048;184;920575;-68
2023/05/11 02:07:13;;;;;;;5.45;4.53;;;;;;;;;;757228;184;1119809;-69
2023/05/11 02:09:39;;;;;;;6.23;4.70;;;;;;;;;;753882;184;1018109;-69
2023/05/11 02:12:05;;;;;;;6.40;4.35;;;;;;;;;;774992;182;711988;-70
2023/05/11 02:14:32;;;;;;;6.00;5.13;;;;;;;;;;759678;181;920342;-70
2023/05/11 02:16:57;;;;;;;7.27;5.37;;;;;;;;;;757528;182;920324;-70
2023/05/11 02:19:23;;;;;;;6.43;4.77;;;;;;;;;;773513;181;919779;-69
2023/05/11 02:21:48;;;;;;;6.90;4.63;;;;;;;;;;761908;183;916240;-70
2023/05/11 02:24:14;;;;;;;8.10;5.00;;;;;;;;;;750320;186;941139;-70
2023/05/11 02:26:40;;;;;;;7.67;4.60;;;;;;;;;;741047;189;936519;-70
2023/05/11 02:29:06;;;;;;;5.50;4.37;;;;;;;;;;755091;181;919460;-70
2023/05/11 02:31:32;;;;;;;6.17;4.07;;;;;;;;;;759133;181;1021416;-70
2023/05/11 02:33:59;;;;;;;5.00;4.28;;;;;;;;;;745226;186;936748;-71
2023/05/11 02:36:24;;;;;;;9.00;4.37;;;;;;;;;;764006;182;919085;-70
2023/05/11 02:38:50;;;;;;;5.10;4.60;;;;;;;;;;764021;181;917992;-70
2023/05/11 02:41:16;;;;;;;7.20;4.77;;;;;;;;;;753543;183;918857;-71
2023/05/11 02:43:44;;;;;;;7.27;4.80;;;;;;;;;;762429;183;920559;-70
2023/05/11 02:46:13;;;;;;;7.57;5.37;;;;;;;;;;760096;183;920852;-70
2023/05/11 02:48:38;;;;;;;9.20;5.20;;;;;;;;;;755310;183;918058;-70
2023/05/11 02:51:04;;;;;;;13.33;5.07;;;;;;;;;;763044;180;812889;-70
2023/05/11 02:53:30;;;;;;;6.77;5.30;;;;;;;;;;764267;180;937257;-70
2023/05/11 02:55:56;;;;;;;5.73;4.50;;;;;;;;;;762542;180;918458;-70
2023/05/11 02:58:22;;;;;;;9.40;4.10;;;;;;;;;;767355;180;914730;-70
2023/05/11 03:00:47;;;;;;;7.00;4.90;;;;;;;;;;768412;180;868991;-70
2023/05/11 03:03:13;;;;;;;5.30;4.10;;;;;;;;;;766498;180;815643;-69
2023/05/11 03:05:39;;;;;;;7.70;4.97;;;;;;;;;;756579;183;862429;-70
2023/05/11 03:08:05;;;;;;;6.40;4.60;;;;;;;;;;768966;180;814994;-70
2023/05/11 03:10:31;;;;;;;5.63;4.40;;;;;;;;;;759538;180;919752;-70
2023/05/11 03:12:57;;;;;;;4.87;3.60;;;;;;;;;;760891;181;918353;-70
2023/05/11 03:15:22;;;;;;;5.37;4.37;;;;;;;;;;741459;190;918162;-70
2023/05/11 03:17:48;;;;;;;6.47;4.50;;;;;;;;;;748342;187;946428;-70
2023/05/11 03:20:14;;;;;;;6.05;4.30;;;;;;;;;;736715;190;921318;-70
2023/05/11 03:22:40;;;;;;;10.30;6.33;;;;;;;;;;752988;186;903705;-70
2023/05/11 03:25:06;;;;;;;7.13;6.43;;;;;;;;;;739469;189;819451;-70
2023/05/11 03:27:32;;;;;;;10.43;7.80;;;;;;;;;;753174;183;918257;-70
2023/05/11 03:29:58;;;;;;;10.90;6.70;;;;;;;;;;762712;181;912893;-70
2023/05/11 03:32:23;;;;;;;10.30;6.83;;;;;;;;;;767911;181;879380;-70
2023/05/11 03:34:50;;;;;;;9.23;7.87;;;;;;;;;;762239;181;815624;-71
2023/05/11 03:37:15;;;;;;;6.20;5.03;;;;;;;;;;765266;180;819427;-71
2023/05/11 03:39:41;;;;;;;7.23;4.63;;;;;;;;;;765644;180;768636;-70
2023/05/11 03:42:07;;;;;;;5.00;4.03;;;;;;;;;;755524;183;816442;-70
2023/05/11 03:44:33;;;;;;;6.70;4.40;;;;;;;;;;766702;180;917495;-70
2023/05/11 03:46:59;;;;;;;4.57;3.87;;;;;;;;;;757381;181;842726;-70
2023/05/11 03:49:25;;;;;;;5.40;4.50;;;;;;;;;;747920;186;912845;-70
2023/05/11 03:51:52;;;;;;;4.30;3.60;;;;;;;;;;747807;186;817146;-70
2023/05/11 03:54:16;;;;;;;6.07;4.10;;;;;;;;;;743692;187;918022;-70
2023/05/11 03:56:42;;;;;;;6.13;4.07;;;;;;;;;;745739;186;918831;-70
2023/05/11 03:59:08;;;;;;;6.87;4.40;;;;;;;;;;758277;183;918282;-71
2023/05/11 04:01:34;;;;;;;8.17;6.00;;;;;;;;;;762973;183;919367;-70
2023/05/11 04:04:00;;;;;;;7.47;4.77;;;;;;;;;;763563;182;816470;-70
2023/05/11 04:06:26;;;;;;;6.40;5.17;;;;;;;;;;764129;180;936169;-70
2023/05/11 04:08:51;;;;;;;6.30;5.13;;;;;;;;;;762597;180;915042;-70
2023/05/11 04:11:17;;;;;;;6.43;4.70;;;;;;;;;;767711;181;917886;-70
2023/05/11 04:13:43;;;;;;;8.67;6.13;;;;;;;;;;765608;181;920315;-70
2023/05/11 04:16:09;;;;;;;6.93;5.07;;;;;;;;;;757134;183;919795;-70
2023/05/11 04:18:35;;;;;;;8.67;5.30;;;;;;;;;;758845;181;973003;-70
2023/05/11 04:21:01;;;;;;;8.73;5.90;;;;;;;;;;770579;180;812872;-69
2023/05/11 04:23:26;;;;;;;9.13;6.43;;;;;;;;;;757005;180;840178;-70
2023/05/11 04:25:53;;;;;;;10.33;5.90;;;;;;;;;;765405;183;920205;-71
2023/05/11 04:28:18;;;;;;;12.03;7.00;;;;;;;;;;765949;180;918974;-70
2023/05/11 04:30:44;;;;;;;11.90;6.57;;;;;;;;;;761015;180;899111;-70
2023/05/11 04:33:11;;;;;;;8.25;5.60;;;;;;;;;;760572;180;921213;-70
2023/05/11 04:35:36;;;;;;;8.83;6.20;;;;;;;;;;770422;181;914354;-70
2023/05/11 04:38:02;;;;;;;8.70;6.30;;;;;;;;;;762708;180;858686;-70
2023/05/11 04:40:27;;;;;;;8.07;6.77;;;;;;;;;;754873;184;921634;-71
2023/05/11 04:42:53;;;;;;;7.43;6.00;;;;;;;;;;763473;183;920556;-71
2023/05/11 04:45:19;;;;;;;12.20;6.40;;;;;;;;;;759965;184;917379;-70
2023/05/11 04:47:45;;;;;;;8.57;6.27;;;;;;;;;;752514;185;625294;-71
2023/05/11 04:50:11;;;;;;;9.18;6.12;;;;;;;;;;737969;190;1021508;-72
2023/05/11 04:52:37;;;;;;;12.83;6.00;;;;;;;;;;766416;181;921041;-70
2023/05/11 04:55:03;;;;;;;8.70;5.50;;;;;;;;;;762339;180;975444;-72
2023/05/11 04:57:28;;;;;;;6.47;5.77;;;;;;;;;;761875;181;914804;-71
2023/05/11 04:59:54;;;;;;;8.77;5.40;;;;;;;;;;772091;180;918749;-71
2023/05/11 05:02:20;;;;;;;7.67;6.00;;;;;;;;;;762600;183;919664;-71
2023/05/11 05:04:46;;;;;;;8.20;4.90;;;;;;;;;;760314;180;882012;-70
2023/05/11 05:07:12;;;;;;;13.10;6.67;;;;;;;;;;766057;180;814705;-71
2023/05/11 05:09:38;;;;;;;13.07;6.57;;;;;;;;;;751076;186;815857;-71
2023/05/11 05:12:04;;;;;;;43.73;31.13;;;;;;;;;;743949;186;919392;-71
2023/05/11 05:14:30;;;;;;;15.53;14.13;;;;;;;;;;757279;180;835810;-71
2023/05/11 05:16:55;;;;;;;11.47;8.83;;;;;;;;;;765271;182;881267;-70
2023/05/11 05:19:21;;;;;;;7.40;6.13;;;;;;;;;;769756;180;771343;-71
2023/05/11 05:21:47;;;;;;;9.70;5.93;;;;;;;;;;766780;182;916658;-71
2023/05/11 05:24:13;;;;;;;10.63;6.27;;;;;;;;;;766693;182;794675;-71
2023/05/11 05:26:39;;;;;;;7.80;6.37;;;;;;;;;;763719;182;920280;-71
2023/05/11 05:29:05;;;;;;;10.77;5.67;;;;;;;;;;765417;183;915149;-71
2023/05/11 05:31:31;;;;;;;7.07;6.00;;;;;;;;;;770391;180;917725;-71
2023/05/11 05:33:56;;;;;;;6.90;5.43;;;;;;;;;;755969;183;726040;-71
2023/05/11 05:36:22;;;;;;;7.73;4.40;;;;;;;;;;756925;181;921345;-70
2023/05/11 05:38:48;;;;;;;8.70;4.40;;;;;;;;;;734899;190;916138;-71
2023/05/11 05:41:14;;;;;;;7.77;5.50;;;;;;;;;;751496;186;918346;-71
2023/05/11 05:43:40;;;;;;;15.60;5.62;;;;;;;;;;742321;187;960684;-71
2023/05/11 05:46:06;;;;;;;6.03;4.70;;;;;;;;;;745340;186;897787;-70
2023/05/11 05:48:31;;;;;;;9.80;5.63;;;;;;;;;;749462;186;916362;-71
2023/05/11 05:50:59;;;;;;;6.10;4.10;;;;;;;;;;748003;186;919247;-71
2023/05/11 05:53:23;;;;;;;43.70;25.87;;;;;;;;;;743282;186;926700;-71
2023/05/11 05:55:49;;;;;;;49.67;27.33;;;;;;;;;;749310;186;918487;-71
2023/05/11 05:58:15;;;;;;;55.07;26.30;;;;;;;;;;759059;181;914508;-71
2023/05/11 06:00:41;;;;;;;54.00;26.70;;;;;;;;;;764379;181;861466;-71
2023/05/11 06:03:07;;;;;;;85.30;46.53;;;;;;;;;;764334;183;918675;-72
2023/05/11 06:05:33;;;;;;;47.10;29.83;;;;;;;;;;767476;183;921730;-71
2023/05/11 06:07:58;;;;;;;9.57;6.90;;;;;;;;;;757314;183;919565;-71
2023/05/11 06:10:24;;;;;;;7.50;4.80;;;;;;;;;;754608;182;919706;-72
2023/05/11 06:12:50;;;;;;;4.77;3.40;;;;;;;;;;759968;184;918964;-72
2023/05/11 06:15:16;;;;;;;7.20;3.50;;;;;;;;;;764131;181;928430;-72
2023/05/11 06:17:42;;;;;;;5.23;3.60;;;;;;;;;;765020;180;919688;-72
2023/05/11 06:20:08;;;;;;;6.30;3.63;;;;;;;;;;771298;181;918981;-71
2023/05/11 06:22:34;;;;;;;6.40;4.67;;;;;;;;;;756571;180;918888;-72
2023/05/11 06:25:00;;;;;;;11.20;8.17;;;;;;;;;;763097;181;1226455;-72
2023/05/11 06:27:26;;;;;;;7.73;5.67;;;;;;;;;;762824;180;918341;-71
2023/05/11 06:29:52;;;;;;;5.73;3.90;;;;;;;;;;761954;180;912965;-72
2023/05/11 06:32:18;;;;;;;5.73;3.43;;;;;;;;;;759581;180;952772;-71
2023/05/11 06:34:44;;;;;;;6.30;3.47;;;;;;;;;;768782;180;779836;-72
2023/05/11 06:37:09;;;;;;;7.97;5.90;;;;;;;;;;770757;180;684241;-71
2023/05/11 06:39:36;;;;;;;8.77;4.17;;;;;;;;;;760143;182;922594;-72
2023/05/11 06:42:02;;;;;;;6.60;3.30;;;;;;;;;;760917;180;1052042;-72
2023/05/11 06:44:28;;;;;;;5.17;2.67;;;;;;;;;;769218;183;918515;-71
2023/05/11 06:46:54;;;;;;;4.77;3.67;;;;;;;;;;761956;183;915205;-72
2023/05/11 06:49:20;;;;;;;5.40;3.70;;;;;;;;;;763984;180;845784;-71
2023/05/11 06:51:45;;;;;;;6.70;2.90;;;;;;;;;;766824;180;918308;-71
2023/05/11 06:54:11;;;;;;;5.67;3.27;;;;;;;;;;762479;180;918584;-72
2023/05/11 06:56:37;;;;;;;5.67;2.80;;;;;;;;;;761460;181;923386;-72
2023/05/11 06:59:03;;;;;;;4.90;3.40;;;;;;;;;;762035;182;1041343;-71
2023/05/11 07:01:29;;;;;;;5.60;2.87;;;;;;;;;;763453;181;918634;-72
2023/05/11 07:03:54;;;;;;;6.47;2.97;;;;;;;;;;764600;181;917830;-72
2023/05/11 07:06:20;;;;;;;7.07;5.33;;;;;;;;;;763469;181;917705;-72
2023/05/11 07:08:47;;;;;;;6.00;4.47;;;;;;;;;;764807;183;918297;-72
2023/05/11 07:11:14;;;;;;;5.23;3.13;;;;;;;;;;763551;180;917597;-71
2023/05/11 07:13:38;;;;;;;6.83;3.00;;;;;;;;;;756674;181;933880;-71
2023/05/11 07:16:04;;;;;;;5.30;2.67;;;;;;;;;;769866;183;821954;-72
2023/05/11 07:18:30;;;;;;;3.63;2.60;;;;;;;;;;761141;183;840958;-72
2023/05/11 07:20:56;;;;;;;4.67;2.50;;;;;;;;;;762678;180;916611;-72
2023/05/11 07:23:22;;;;;;;13.70;2.77;;;;;;;;;;762952;180;637049;-72
2023/05/11 07:25:48;;;;;;;3.90;2.17;;;;;;;;;;766782;182;1020528;-72
2023/05/11 07:28:13;;;;;;;4.90;2.57;;;;;;;;;;755325;184;916265;-72
2023/05/11 07:30:40;;;;;;;4.60;2.33;;;;;;;;;;762824;183;865910;-72
2023/05/11 07:33:05;;;;;;;4.47;2.80;;;;;;;;;;763992;183;941260;-72
2023/05/11 07:35:31;;;;;;;5.53;2.73;;;;;;;;;;765605;181;714517;-72
2023/05/11 07:37:57;;;;;;;4.13;2.80;;;;;;;;;;768451;180;798233;-72
2023/05/11 07:40:23;;;;;;;4.47;2.20;;;;;;;;;;769683;180;815780;-72
2023/05/11 07:42:48;;;;;;;5.40;2.30;;;;;;;;;;767985;180;912120;-72
2023/05/11 07:45:14;;;;;;;3.97;1.57;;;;;;;;;;751017;183;923980;-72
2023/05/11 07:47:40;;;;;;;7.97;2.77;;;;;;;;;;764023;181;817272;-72
2023/05/11 07:50:07;;;;;;;4.00;1.70;;;;;;;;;;739410;187;918861;-71
2023/05/11 07:52:32;;;;;;;3.97;1.70;;;;;;;;;;761623;183;846285;-71
2023/05/11 07:54:58;;;;;;;5.97;2.40;;;;;;;;;;758612;183;919378;-72
2023/05/11 07:57:24;;;;;;;3.30;2.30;;;;;;;;;;764810;181;926055;-71
2023/05/11 07:59:50;;;;;;;8.50;2.23;;;;;;;;;;755012;184;919052;-72
2023/05/11 08:02:17;;;;;;;3.63;2.17;;;;;;;;;;754117;183;917566;-72
2023/05/11 08:04:42;;;;;;;7.50;1.90;;;;;;;;;;768106;181;623316;-72
2023/05/11 08:07:07;;;;;;;3.00;1.40;;;;;;;;;;768512;181;816636;-71
2023/05/11 08:09:33;;;;;;;3.47;1.80;;;;;;;;;;762347;181;915832;-72
2023/05/11 08:12:01;;;;;;;19.20;11.33;;;;;;;;;;767893;181;920775;-72
2023/05/11 08:14:25;;;;;;;9.47;5.90;;;;;;;;;;759560;183;918188;-71
2023/05/11 08:16:51;;;;;;;8.70;2.97;;;;;;;;;;764370;181;918524;-72
2023/05/11 08:19:17;;;;;;;5.33;1.80;;;;;;;;;;755998;184;933001;-72
2023/05/11 08:21:45;;;;;;;3.70;2.67;;;;;;;;;;761283;181;917361;-71
2023/05/11 08:24:09;;;;;;;5.37;3.47;;;;;;;;;;766943;181;815432;-72
2023/05/11 08:26:35;;;;;;;3.03;1.83;;;;;;;;;;762786;181;815611;-72
2023/05/11 08:29:03;;;;;;;5.10;2.33;;;;;;;;;;764936;184;918722;-72
2023/05/11 08:31:27;;;;;;;5.00;2.20;;;;;;;;;;765769;182;916922;-72
2023/05/11 08:33:52;;;;;;;3.63;2.20;;;;;;;;;;754211;183;816758;-71
2023/05/11 08:36:18;;;;;;;6.30;2.60;;;;;;;;;;772580;183;714261;-71
2023/05/11 08:38:44;;;;;;;3.77;2.10;;;;;;;;;;763600;183;918261;-71
2023/05/11 08:41:10;;;;;;;2.60;1.50;;;;;;;;;;759274;183;915129;-69
2023/05/11 08:43:37;;;;;;;4.03;1.70;;;;;;;;;;769093;182;918156;-71
2023/05/11 08:46:02;;;;;;;3.25;1.70;;;;;;;;;;763724;183;885620;-71
2023/05/11 08:48:27;;;;;;;3.80;1.93;;;;;;;;;;767213;181;919056;-71
2023/05/11 08:50:53;;;;;;;3.40;1.73;;;;;;;;;;770422;181;918040;-72
2023/05/11 08:53:19;;;;;;;9.07;2.40;;;;;;;;;;769820;180;919570;-71
2023/05/11 08:55:45;;;;;;;3.10;1.90;;;;;;;;;;762057;181;919184;-72
2023/05/11 08:58:13;;;;;;;3.83;1.87;;;;;;;;;;755144;181;1016975;-72
2023/05/11 09:00:37;;;;;;;6.97;1.70;;;;;;;;;;762735;183;914892;-72
2023/05/11 09:03:03;;;;;;;7.30;2.27;;;;;;;;;;738757;188;914795;-71
2023/05/11 09:05:28;;;;;;;6.63;2.17;;;;;;;;;;743720;187;916167;-71
2023/05/11 09:07:55;;;;;;;5.37;2.00;;;;;;;;;;738515;189;942913;-73
2023/05/11 09:10:21;;;;;;;6.13;2.03;;;;;;;;;;752284;184;916465;-70
2023/05/11 09:12:47;;;;;;;5.37;2.10;;;;;;;;;;765371;181;919030;-72
2023/05/11 09:15:13;;;;;;;3.43;2.03;;;;;;;;;;753118;181;921754;-72
2023/05/11 09:17:38;;;;;;;3.83;1.90;;;;;;;;;;770147;181;812182;-72
2023/05/11 09:20:05;;;;;;;7.05;2.50;;;;;;;;;;762996;180;844792;-72
2023/05/11 09:22:31;;;;;;;3.70;2.10;;;;;;;;;;759776;181;914926;-72
2023/05/11 09:24:57;;;;;;;3.83;1.90;;;;;;;;;;740426;187;913631;-73
2023/05/11 09:27:23;;;;;;;6.03;1.80;;;;;;;;;;739637;186;885012;-72
2023/05/11 09:29:48;;;;;;;3.87;1.87;;;;;;;;;;749310;185;918285;-72
2023/05/11 09:32:15;;;;;;;4.87;2.37;;;;;;;;;;765382;183;816002;-72
2023/05/11 09:34:40;;;;;;;5.40;2.07;;;;;;;;;;763175;180;919839;-71
2023/05/11 09:37:06;;;;;;;4.90;2.80;;;;;;;;;;756997;180;1022294;-72
2023/05/11 09:39:33;;;;;;;12.03;3.73;;;;;;;;;;758957;181;919222;-72
2023/05/11 09:42:04;;;;;;;4.07;2.00;;;;;;;;;;768446;181;915043;-71
2023/05/11 09:44:29;;;;;;;2.90;2.00;;;;;;;;;;757563;182;919425;-72
2023/05/11 09:46:55;;;;;;;5.03;2.57;;;;;;;;;;759816;184;918178;-70
2023/05/11 09:49:21;;;;;;;5.73;2.33;;;;;;;;;;769315;183;986385;-71
2023/05/11 09:51:47;;;;;;;3.63;2.13;;;;;;;;;;768613;181;916792;-70
2023/05/11 09:54:16;;;;;;;4.47;2.10;;;;;;;;;;765995;183;920563;-71
2023/05/11 09:56:43;;;;;;;5.87;2.10;;;;;;;;;;759290;181;918776;-72
2023/05/11 09:59:09;;;;;;;2.87;2.00;;;;;;;;;;768317;181;816249;-71
2023/05/11 10:01:36;;;;;;;6.20;2.00;;;;;;;;;;767903;181;919754;-70
2023/05/11 10:04:00;;;;;;;2.83;1.97;;;;;;;;;;761864;180;914630;-72
2023/05/11 10:06:27;;;;;;;3.73;2.30;;;;;;;;;;765173;181;917618;-72
2023/05/11 10:08:52;;;;;;;3.57;2.23;;;;;;;;;;757859;182;917303;-72
2023/05/11 10:11:18;;;;;;;4.03;2.20;;;;;;;;;;756929;180;918937;-71
2023/05/11 10:13:44;;;;;;;4.43;1.90;;;;;;;;;;765796;179;916035;-72
2023/05/11 10:16:09;;;;;;;7.40;1.90;;;;;;;;;;767636;183;908476;-71
2023/05/11 10:18:35;;;;;;;3.40;2.03;;;;;;;;;;755175;181;920093;-70
2023/05/11 10:21:01;;;;;;;7.27;2.33;;;;;;;;;;752111;181;920183;-72
2023/05/11 10:23:27;;;;;;;3.70;2.13;;;;;;;;;;767840;181;919317;-71
2023/05/11 10:25:53;;;;;;;4.20;2.40;;;;;;;;;;764893;181;908164;-72
2023/05/11 10:28:20;;;;;;;3.17;2.23;;;;;;;;;;755684;181;996155;-71
2023/05/11 10:30:45;;;;;;;3.80;2.13;;;;;;;;;;760760;183;918344;-69
2023/05/11 10:33:11;;;;;;;8.90;2.60;;;;;;;;;;757786;183;915264;-70
2023/05/11 10:35:37;;;;;;;4.00;2.67;;;;;;;;;;764950;181;913161;-71
2023/05/11 10:38:03;;;;;;;4.53;2.13;;;;;;;;;;754726;184;812997;-72
2023/05/11 10:40:28;;;;;;;3.80;2.00;;;;;;;;;;738935;189;906835;-70
2023/05/11 10:43:12;;;;;;;3.87;2.43;;;;;;;;;;757968;183;918050;-71
2023/05/11 10:45:40;;;;;;;2.90;2.13;;;;;;;;;;763902;181;811047;-71
2023/05/11 10:48:21;;;;;;;3.77;2.00;;;;;;;;;;760538;181;1021538;-72
2023/05/11 10:50:52;;;;;;;2.80;1.93;;;;;;;;;;763590;180;961205;-71
2023/05/11 10:53:19;;;;;;;3.93;2.00;;;;;;;;;;767670;182;917816;-71
2023/05/11 10:55:55;;;;;;;4.63;2.20;;;;;;;;;;751788;183;1150194;-70
2023/05/11 10:58:30;;;;;;;4.07;1.83;;;;;;;;;;756362;183;1021976;-71
2023/05/11 11:01:02;;;;;;;3.00;2.00;;;;;;;;;;757160;181;1015962;-71
2023/05/11 11:03:27;;;;;;;3.08;1.95;;;;;;;;;;763896;181;817687;-71
2023/05/11 11:05:53;;;;;;;4.07;2.23;;;;;;;;;;776209;181;759888;-72
2023/05/11 11:08:19;;;;;;;4.23;2.23;;;;;;;;;;759074;183;920730;-71
2023/05/11 11:10:45;;;;;;;3.33;1.93;;;;;;;;;;763608;183;1019252;-70
2023/05/11 11:13:11;;;;;;;3.47;2.17;;;;;;;;;;772459;181;862341;-70
2023/05/11 11:15:42;;;;;;;4.90;2.20;;;;;;;;;;765433;180;1021692;-71
2023/05/11 11:18:14;;;;;;;2.87;1.97;;;;;;;;;;766914;181;851542;-70
2023/05/11 11:20:44;;;;;;;2.97;2.00;;;;;;;;;;768621;182;865104;-71
2023/05/11 11:23:10;;;;;;;4.13;1.67;;;;;;;;;;769202;180;919428;-70
2023/05/11 11:25:41;;;;;;;4.40;2.00;;;;;;;;;;764563;183;867969;-71
2023/05/11 11:28:07;;;;;;;4.10;1.97;;;;;;;;;;749389;187;792310;-71
2023/05/11 11:30:33;;;;;;;3.10;2.07;;;;;;;;;;760275;182;806576;-70
2023/05/11 11:33:05;;;;;;;5.50;1.90;;;;;;;;;;764873;183;1017747;-70
2023/05/11 11:35:36;;;;;;;3.25;1.83;;;;;;;;;;766983;183;915688;-70
2023/05/11 11:38:02;;;;;;;3.30;1.80;;;;;;;;;;746720;183;1019737;-70
2023/05/11 11:40:34;;;;;;;3.37;2.00;;;;;;;;;;764557;183;1025472;-70
2023/05/11 11:43:00;;;;;;;3.47;1.90;;;;;;;;;;761739;181;1023666;-71
2023/05/11 11:45:27;;;;;;;3.23;1.70;;;;;;;;;;772297;183;919862;-70
2023/05/11 11:47:59;;;;;;;5.23;2.10;;;;;;;;;;757567;183;918842;-70
2023/05/11 11:50:25;;;;;;;4.83;2.20;;;;;;;;;;761817;181;957216;-70
2023/05/11 11:52:51;;;;;;;4.27;1.77;;;;;;;;;;766142;184;858221;-71
2023/05/11 11:55:17;;;;;;;5.10;2.63;;;;;;;;;;760249;181;816576;-70
2023/05/11 11:57:48;;;;;;;3.27;1.93;;;;;;;;;;763426;183;927942;-70
2023/05/11 12:00:10;;;;;;;4.30;2.27;;;;;;;;;;752849;181;920531;-71
2023/05/11 12:02:36;;;;;;;2.97;1.70;;;;;;;;;;766091;181;846932;-70
2023/05/11 12:05:06;;;;;;;4.50;2.23;;;;;;;;;;763890;181;1018446;-70
2023/05/11 12:07:32;;;;;;;3.80;2.03;;;;;;;;;;762787;181;816978;-70
2023/05/11 12:09:58;;;;;;;3.27;1.90;;;;;;;;;;760855;181;662244;-70
2023/05/11 12:12:23;;;;;;;4.87;1.63;;;;;;;;;;765842;183;906580;-70
2023/05/11 12:14:49;;;;;;;4.40;2.40;;;;;;;;;;763834;183;917437;-70
2023/05/11 12:17:24;;;;;;;3.20;2.13;;;;;;;;;;753226;181;922092;-73
2023/05/11 12:19:50;;;;;;;4.47;1.97;;;;;;;;;;738331;188;919591;-72
2023/05/11 12:22:16;;;;;;;4.30;2.57;;;;;;;;;;741695;187;922821;-70
2023/05/11 12:24:41;;;;;;;4.40;2.37;;;;;;;;;;743373;188;871145;-70
2023/05/11 12:27:08;;;;;;;3.40;2.00;;;;;;;;;;751117;186;1023483;-69
2023/05/11 12:29:33;;;;;;;4.23;2.37;;;;;;;;;;757580;183;919088;-71
2023/05/11 12:31:59;;;;;;;4.65;2.28;;;;;;;;;;755073;180;919088;-71
2023/05/11 12:34:25;;;;;;;8.93;2.10;;;;;;;;;;761610;180;914218;-70
2023/05/11 12:36:51;;;;;;;5.93;2.53;;;;;;;;;;772053;183;1023376;-70
2023/05/11 12:39:19;;;;;;;2.97;2.10;;;;;;;;;;763386;182;914215;-70
2023/05/11 12:41:46;;;;;;;3.50;2.40;;;;;;;;;;761422;181;919946;-68
2023/05/11 12:44:12;;;;;;;3.97;2.80;;;;;;;;;;769464;183;918271;-69
2023/05/11 12:46:38;;;;;;;4.10;2.00;;;;;;;;;;760355;181;936577;-70
2023/05/11 12:49:04;;;;;;;3.12;1.60;;;;;;;;;;763330;181;914294;-70
2023/05/11 12:51:35;;;;;;;4.50;2.13;;;;;;;;;;756602;183;815890;-70
2023/05/11 12:54:01;;;;;;;3.10;1.87;;;;;;;;;;771634;182;819048;-71
2023/05/11 12:56:27;;;;;;;4.63;2.17;;;;;;;;;;751967;183;914620;-70
2023/05/11 12:58:53;;;;;;;4.00;2.20;;;;;;;;;;755462;183;918921;-70
2023/05/11 13:01:19;;;;;;;4.30;2.30;;;;;;;;;;761373;181;1021235;-69
2023/05/11 13:03:46;;;;;;;3.20;1.90;;;;;;;;;;757606;184;1010987;-70
2023/05/11 13:06:10;;;;;;;3.50;2.30;;;;;;;;;;745488;187;807657;-70
2023/05/11 13:08:37;;;;;;;9.63;2.97;;;;;;;;;;756934;183;917836;-70
2023/05/11 13:11:09;;;;;;;3.07;2.00;;;;;;;;;;757753;180;981771;-70
2023/05/11 13:13:34;;;;;;;3.97;2.10;;;;;;;;;;760225;182;919912;-71
2023/05/11 13:16:00;;;;;;;3.37;2.20;;;;;;;;;;757333;181;1122521;-69
2023/05/11 13:18:26;;;;;;;11.20;2.30;;;;;;;;;;770264;181;918637;-70
2023/05/11 13:20:52;;;;;;;9.90;2.37;;;;;;;;;;764573;180;920961;-69
2023/05/11 13:23:18;;;;;;;3.62;2.40;;;;;;;;;;764195;180;1083744;-70
2023/05/11 13:25:52;;;;;;;3.40;1.90;;;;;;;;;;750650;184;814441;-72
2023/05/11 13:28:18;;;;;;;5.87;2.43;;;;;;;;;;757531;184;1023793;-71
2023/05/11 13:30:44;;;;;;;3.20;2.07;;;;;;;;;;763382;181;919364;-71
2023/05/11 13:33:09;;;;;;;6.00;1.97;;;;;;;;;;761856;181;813942;-70
2023/05/11 13:35:38;;;;;;;4.53;2.50;;;;;;;;;;770345;181;915671;-72
2023/05/11 13:38:04;;;;;;;2.43;1.43;;;;;;;;;;768140;182;919309;-72
2023/05/11 13:40:30;;;;;;;4.83;2.90;;;;;;;;;;755637;180;924040;-71
2023/05/11 13:42:56;;;;;;;4.73;2.87;;;;;;;;;;761043;180;918765;-72
2023/05/11 13:45:22;;;;;;;4.83;2.30;;;;;;;;;;772446;183;817048;-72
2023/05/11 13:47:48;;;;;;;4.60;2.70;;;;;;;;;;760298;183;915764;-71
2023/05/11 13:50:14;;;;;;;5.33;2.60;;;;;;;;;;761509;181;919690;-71
2023/05/11 13:52:40;;;;;;;5.20;3.10;;;;;;;;;;770694;181;919189;-70
2023/05/11 13:55:06;;;;;;;3.20;2.13;;;;;;;;;;754907;182;917442;-71
2023/05/11 13:57:31;;;;;;;3.65;2.20;;;;;;;;;;757384;183;916100;-71
2023/05/11 13:59:57;;;;;;;9.60;2.60;;;;;;;;;;756215;186;1108485;-70
2023/05/11 14:02:23;;;;;;;5.20;2.70;;;;;;;;;;748554;186;900062;-71
2023/05/11 14:04:49;;;;;;;5.32;2.58;;;;;;;;;;763958;180;1023324;-71
2023/05/11 14:07:15;;;;;;;4.60;2.90;;;;;;;;;;764942;181;918974;-71
2023/05/11 14:09:42;;;;;;;3.70;2.50;;;;;;;;;;771063;181;920042;-69
2023/05/11 14:12:07;;;;;;;3.33;2.03;;;;;;;;;;748893;183;1021993;-71
2023/05/11 14:14:33;;;;;;;8.40;2.77;;;;;;;;;;758601;181;1021121;-70
2023/05/11 14:16:59;;;;;;;4.40;2.70;;;;;;;;;;765808;181;1118726;-70
2023/05/11 14:19:25;;;;;;;4.60;2.67;;;;;;;;;;762214;181;1018870;-75
2023/05/11 14:21:51;;;;;;;8.83;2.67;;;;;;;;;;759934;183;1021210;-71